Time;durP1;ratioP1;P1;durP2;ratioP2;P2;SDS_P1;SDS_P2;PMS_P1;PMS_P2;Temp;Humidity;BMP_temperature;BMP_pressure;BME280_temperature;BME280_humidity;BME280_pressure;Samples;Min_cycle;Max_cycle;Signal;HPM_P1;HPM_P2
2023/04/06 00:02:46;;;;;;;31.60;14.40;;;;;;;3.06;88.16;100826.91;8354526;28;20500;-58
2023/04/06 00:06:47;;;;;;;27.73;14.40;;;;;;;3.07;87.22;100817.94;8355785;28;20056;-58
2023/04/06 00:10:47;;;;;;;34.75;14.90;;;;;;;3.19;86.35;100833.25;8356079;28;20098;-58
2023/04/06 00:14:48;;;;;;;28.65;15.10;;;;;;;3.21;84.94;100817.16;8355025;28;20065;-58
2023/04/06 00:18:48;;;;;;;28.88;14.32;;;;;;;3.37;84.75;100818.88;8354383;28;20079;-58
2023/04/06 00:22:49;;;;;;;26.75;14.30;;;;;;;3.54;86.02;100808.03;8351368;28;20056;-58
2023/04/06 00:26:49;;;;;;;38.85;14.80;;;;;;;2.86;88.65;100816.44;8350761;28;20048;-58
2023/04/06 00:30:52;;;;;;;33.70;15.23;;;;;;;2.76;89.00;100803.69;8352072;28;20045;-58
2023/04/06 00:34:52;;;;;;;29.75;15.43;;;;;;;2.79;89.70;100796.38;8354987;28;20041;-53
2023/04/06 00:38:53;;;;;;;27.88;14.68;;;;;;;2.74;88.79;100793.09;8353210;28;20049;-54
2023/04/06 00:42:54;;;;;;;29.02;14.63;;;;;;;2.81;88.58;100796.31;8354629;28;20049;-54
2023/04/06 00:46:55;;;;;;;26.73;13.85;;;;;;;2.78;88.55;100789.34;8355699;28;20460;-54
2023/04/06 00:50:56;;;;;;;34.33;14.48;;;;;;;2.93;87.69;100777.78;8360543;28;20148;-54
2023/04/06 00:54:56;;;;;;;32.30;14.55;;;;;;;2.94;87.33;100779.50;8361471;28;20044;-54
2023/04/06 00:58:57;;;;;;;28.95;13.00;;;;;;;2.98;87.01;100775.72;8361959;28;20345;-55
2023/04/06 01:02:58;;;;;;;34.28;15.05;;;;;;;3.02;86.91;100771.91;8360213;28;20072;-54
2023/04/06 01:07:07;;;;;;;27.77;14.95;;;;;;;2.97;87.02;100763.31;8359413;28;20037;-54
2023/04/06 01:11:17;;;;;;;28.30;13.95;;;;;;;3.04;86.40;100758.47;8360853;28;20518;-53
2023/04/06 01:15:19;;;;;;;30.17;12.35;;;;;;;2.99;86.42;100758.72;8360783;28;20036;-53
2023/04/06 01:19:24;;;;;;;33.92;14.02;;;;;;;3.03;86.21;100746.09;8360560;28;20086;-54
2023/04/06 01:23:27;;;;;;;25.63;13.40;;;;;;;2.84;86.30;100751.59;8359836;28;20093;-57
2023/04/06 01:27:29;;;;;;;32.38;15.00;;;;;;;2.74;87.16;100750.41;8359440;28;20037;-57
2023/04/06 01:31:48;;;;;;;33.40;14.57;;;;;;;2.69;87.38;100741.81;8359560;28;20067;-58
2023/04/06 01:35:49;;;;;;;31.50;13.52;;;;;;;2.71;86.41;100739.88;8360000;28;20091;-58
2023/04/06 01:39:53;;;;;;;27.13;13.38;;;;;;;2.71;86.58;100739.88;8359293;28;20044;-57
2023/04/06 01:44:04;;;;;;;26.70;12.93;;;;;;;2.78;86.26;100729.75;8328058;28;20080;-58
2023/04/06 01:48:07;;;;;;;32.35;13.70;;;;;;;2.83;85.36;100727.66;8327074;28;20037;-58
2023/04/06 01:52:07;;;;;;;28.33;13.63;;;;;;;2.75;85.31;100728.13;8340208;28;20044;-54
2023/04/06 01:56:11;;;;;;;30.25;13.48;;;;;;;2.58;86.55;100729.97;8358522;28;20046;-52
2023/04/06 02:00:17;;;;;;;33.72;14.98;;;;;;;2.67;85.97;100722.34;8358181;28;20496;-54
2023/04/06 02:04:24;;;;;;;28.23;14.40;;;;;;;2.65;86.51;100721.53;8358956;28;20218;-54
2023/04/06 02:08:33;;;;;;;29.02;13.98;;;;;;;2.63;85.95;100715.47;8358286;28;20041;-54
2023/04/06 02:12:34;;;;;;;30.67;13.77;;;;;;;2.60;86.50;100715.63;8358777;28;20044;-55
2023/04/06 02:16:35;;;;;;;27.05;12.80;;;;;;;2.57;86.12;100710.47;8359333;28;20098;-55
2023/04/06 02:20:35;;;;;;;31.48;13.27;;;;;;;2.50;86.55;100708.22;8357727;28;20037;-55
2023/04/06 02:24:36;;;;;;;30.67;14.60;;;;;;;2.40;86.54;100715.00;8358145;28;20041;-55
2023/04/06 02:28:36;;;;;;;27.90;14.10;;;;;;;2.46;86.41;100712.84;8353198;28;20127;-55
2023/04/06 02:32:37;;;;;;;23.02;12.25;;;;;;;2.44;86.40;100704.06;8385635;28;20071;-54
2023/04/06 02:36:38;;;;;;;26.45;13.13;;;;;;;2.49;85.38;100706.47;8356660;28;20033;-55
2023/04/06 02:40:38;;;;;;;29.30;12.82;;;;;;;2.36;85.89;100700.09;8358787;28;20037;-58
2023/04/06 02:44:52;;;;;;;31.48;13.75;;;;;;;2.41;85.97;100704.22;8386041;28;20045;-58
2023/04/06 02:48:56;;;;;;;30.85;13.40;;;;;;;2.38;85.56;100703.56;8390942;28;20090;-58
2023/04/06 02:52:56;;;;;;;25.75;13.82;;;;;;;2.38;85.77;100704.41;8390262;28;20036;-58
2023/04/06 02:56:57;;;;;;;26.35;12.77;;;;;;;2.39;85.68;100706.16;8390750;28;20049;-58
2023/04/06 03:01:06;;;;;;;25.95;12.93;;;;;;;2.34;85.55;100700.19;8390236;28;20051;-58
2023/04/06 03:05:09;;;;;;;29.25;14.25;;;;;;;2.24;86.47;100695.44;8388885;28;20082;-58
2023/04/06 03:09:14;;;;;;;27.33;14.23;;;;;;;2.23;87.50;100696.41;8390327;28;20403;-59
2023/04/06 03:13:17;;;;;;;28.65;12.82;;;;;;;2.22;86.93;100700.03;8388823;28;20419;-59
2023/04/06 03:17:22;;;;;;;30.85;14.45;;;;;;;2.08;87.83;100696.28;8389109;28;20038;-56
2023/04/06 03:21:22;;;;;;;27.77;13.70;;;;;;;2.10;87.76;100693.53;8389368;28;20040;-58
2023/04/06 03:25:26;;;;;;;30.60;13.40;;;;;;;2.13;87.56;100693.34;8389508;28;20035;-58
2023/04/06 03:29:31;;;;;;;30.00;14.05;;;;;;;2.11;87.73;100695.28;8389881;28;20036;-58
2023/04/06 03:33:32;;;;;;;28.60;13.63;;;;;;;2.19;86.43;100682.38;8389621;28;20044;-58
2023/04/06 03:37:32;;;;;;;34.58;14.02;;;;;;;2.37;85.91;100692.03;8389542;28;20037;-58
2023/04/06 03:41:36;;;;;;;;;;;;;;;1.95;87.65;100691.69;8389495;28;20164;-59
2023/04/06 03:45:50;;;;;;;31.83;14.43;;;;;;;2.07;87.48;100685.69;8389562;28;19916;-59
2023/04/06 03:49:51;;;;;;;30.10;14.43;;;;;;;2.13;86.45;100693.34;8389628;28;20036;-59
2023/04/06 03:53:51;;;;;;;28.25;13.77;;;;;;;2.21;86.27;100700.94;8387513;28;20074;-55
2023/04/06 03:57:52;;;;;;;27.75;13.57;;;;;;;2.05;86.48;100680.44;8389694;28;20098;-57
2023/04/06 04:01:52;;;;;;;32.22;14.55;;;;;;;2.02;86.50;100693.09;8372417;28;20128;-58
2023/04/06 04:05:55;;;;;;;30.08;14.50;;;;;;;2.09;86.19;100683.81;8364039;28;20041;-58
2023/04/06 04:09:57;;;;;;;28.58;14.13;;;;;;;2.16;86.15;100687.03;8370256;28;20069;-57
2023/04/06 04:13:57;;;;;;;31.35;14.23;;;;;;;2.23;85.29;100688.41;8358323;28;20037;-59
2023/04/06 04:17:58;;;;;;;29.25;14.20;;;;;;;2.23;84.81;100683.94;8362135;28;20636;-53
2023/04/06 04:21:59;;;;;;;33.53;14.80;;;;;;;2.20;85.23;100678.78;8375454;28;20098;-55
2023/04/06 04:26:06;;;;;;;25.95;14.32;;;;;;;2.22;84.96;100686.69;8361211;28;20045;-54
2023/04/06 04:30:07;;;;;;;30.27;14.02;;;;;;;2.21;85.28;100679.63;8362533;28;20044;-55
2023/04/06 04:34:07;;;;;;;30.60;14.05;;;;;;;2.19;84.89;100678.84;8361628;28;20075;-55
2023/04/06 04:38:08;;;;;;;30.65;14.15;;;;;;;2.17;84.83;100678.94;8403894;28;20032;-55
2023/04/06 04:42:14;;;;;;;26.77;13.65;;;;;;;2.15;85.49;100680.81;8416291;28;20065;-55
2023/04/06 04:46:20;;;;;;;29.05;14.52;;;;;;;2.08;85.69;100681.22;8361384;28;20530;-55
2023/04/06 04:50:21;;;;;;;27.30;13.50;;;;;;;2.18;85.78;100685.97;8361753;28;20372;-55
2023/04/06 04:54:25;;;;;;;30.83;15.05;;;;;;;2.13;86.14;100688.03;8357031;28;20048;-55
2023/04/06 04:58:26;;;;;;;34.63;12.95;;;;;;;2.19;86.14;100682.38;8378789;28;20090;-53
2023/04/06 05:02:30;;;;;;;32.70;14.50;;;;;;;2.25;86.08;100687.38;8373246;28;20524;-58
2023/04/06 05:06:50;;;;;;;31.50;15.05;;;;;;;2.24;85.94;100690.13;8392168;28;20044;-54
2023/04/06 05:10:52;;;;;;;32.95;14.35;;;;;;;2.36;85.87;100690.31;8377260;28;20052;-55
2023/04/06 05:14:54;;;;;;;34.33;15.38;;;;;;;2.47;84.98;100687.03;8387408;28;20044;-54
2023/04/06 05:18:56;;;;;;;30.35;13.00;;;;;;;2.60;85.11;100686.28;8382090;28;20089;-53
2023/04/06 05:23:01;;;;;;;29.02;14.50;;;;;;;2.80;84.05;100688.66;8401072;28;20050;-54
2023/04/06 05:27:02;;;;;;;28.00;12.85;;;;;;;2.93;83.81;100684.31;8364437;28;20042;-54
2023/04/06 05:31:03;;;;;;;29.02;13.75;;;;;;;2.98;83.51;100690.28;8351667;28;20033;-54
2023/04/06 05:35:12;;;;;;;31.40;14.38;;;;;;;3.20;82.84;100690.72;8353355;28;20040;-54
2023/04/06 05:39:15;;;;;;;28.90;14.38;;;;;;;3.34;82.61;100690.78;8374808;28;20086;-54
2023/04/06 05:43:21;;;;;;;31.27;13.85;;;;;;;3.53;82.35;100691.41;8392683;28;20052;-54
2023/04/06 05:47:27;;;;;;;28.45;14.73;;;;;;;3.70;81.56;100683.25;8392373;28;20048;-55
2023/04/06 05:51:36;;;;;;;28.13;13.55;;;;;;;3.83;81.19;100684.22;8391899;28;20547;-54
2023/04/06 05:55:37;;;;;;;32.13;14.00;;;;;;;3.92;81.27;100691.66;8392187;28;20449;-55
2023/04/06 05:59:49;;;;;;;25.23;13.38;;;;;;;4.22;80.63;100688.00;8361161;28;20428;-55
2023/04/06 06:03:50;;;;;;;28.58;13.07;;;;;;;4.34;79.83;100685.44;8373402;28;20045;-55
2023/04/06 06:07:52;;;;;;;25.08;13.32;;;;;;;4.66;79.46;100680.69;8355947;28;20040;-56
2023/04/06 06:11:52;;;;;;;26.15;13.82;;;;;;;4.87;79.14;100687.31;8334634;28;20500;-56
2023/04/06 06:15:57;;;;;;;25.60;12.63;;;;;;;5.02;78.77;100680.94;8323642;28;20506;-55
2023/04/06 06:19:59;;;;;;;29.58;12.73;;;;;;;5.16;78.76;100683.56;8321065;28;20041;-59
2023/04/06 06:24:01;;;;;;;24.88;12.95;;;;;;;5.41;77.39;100676.47;8353002;28;20051;-59
2023/04/06 06:28:03;;;;;;;27.00;12.77;;;;;;;5.60;76.83;100690.31;8353719;28;20781;-58
2023/04/06 06:32:05;;;;;;;24.65;12.98;;;;;;;6.05;76.58;100680.94;8375401;28;20123;-59
2023/04/06 06:36:06;;;;;;;21.15;11.82;;;;;;;6.06;75.62;100679.97;8346028;28;20415;-59
2023/04/06 06:40:10;;;;;;;27.52;12.73;;;;;;;6.19;75.74;100688.84;8336707;28;20113;-59
2023/04/06 06:44:11;;;;;;;28.40;11.68;;;;;;;6.40;75.44;100684.63;8336243;28;20053;-59
2023/04/06 06:48:11;;;;;;;26.58;11.68;;;;;;;6.53;75.14;100679.25;8341423;28;20045;-59
2023/04/06 06:52:14;;;;;;;23.55;12.18;;;;;;;6.55;75.32;100685.34;8335994;28;20063;-58
2023/04/06 06:56:14;;;;;;;24.08;12.63;;;;;;;6.63;75.95;100673.09;8339760;28;20042;-59
2023/04/06 07:00:15;;;;;;;23.20;13.00;;;;;;;6.81;76.22;100670.91;8351665;28;20045;-59
2023/04/06 07:04:22;;;;;;;27.27;14.10;;;;;;;6.94;75.84;100651.06;8337971;28;20052;-56
2023/04/06 07:08:24;;;;;;;20.52;11.82;;;;;;;7.18;76.86;100654.59;8324912;28;20041;-56
2023/04/06 07:12:24;;;;;;;23.38;12.57;;;;;;;7.41;75.83;100667.13;8338141;28;20041;-55
2023/04/06 07:16:26;;;;;;;22.75;11.38;;;;;;;7.74;73.18;100653.78;8355201;28;20048;-55
2023/04/06 07:20:28;;;;;;;24.92;12.75;;;;;;;7.91;72.26;100661.41;8336069;28;20063;-55
2023/04/06 07:24:29;;;;;;;25.23;13.85;;;;;;;8.37;73.01;100657.78;8326840;28;20037;-56
2023/04/06 07:28:30;;;;;;;24.88;11.77;;;;;;;8.32;71.37;100662.69;8336919;28;20132;-55
2023/04/06 07:32:31;;;;;;;29.17;13.05;;;;;;;8.47;71.60;100658.75;8335699;28;20393;-55
2023/04/06 07:36:32;;;;;;;25.42;13.85;;;;;;;9.14;71.81;100654.91;8346968;28;20044;-55
2023/04/06 07:40:33;;;;;;;22.45;12.57;;;;;;;9.20;70.14;100649.00;8345819;28;20088;-59
2023/04/06 07:44:34;;;;;;;24.08;12.68;;;;;;;9.50;70.59;100651.81;8320735;28;20155;-59
2023/04/06 07:48:34;;;;;;;20.80;12.73;;;;;;;9.61;70.40;100646.38;8335524;28;20040;-59
2023/04/06 07:52:35;;;;;;;22.38;12.50;;;;;;;9.84;69.22;100645.22;8334700;28;20101;-59
2023/04/06 07:56:35;;;;;;;24.08;13.60;;;;;;;10.34;69.09;100638.13;8338651;28;20128;-59
2023/04/06 08:00:36;;;;;;;23.67;12.20;;;;;;;10.74;67.86;100637.09;8346962;28;20036;-55
2023/04/06 08:04:36;;;;;;;25.42;12.68;;;;;;;10.73;66.66;100640.81;8340876;28;20036;-55
2023/04/06 08:08:37;;;;;;;23.45;12.50;;;;;;;10.65;65.86;100637.97;8328855;28;20045;-55
2023/04/06 08:12:37;;;;;;;24.38;11.85;;;;;;;11.18;65.94;100633.91;8338339;28;20060;-55
2023/04/06 08:16:38;;;;;;;24.55;13.00;;;;;;;11.38;64.67;100630.19;8354605;28;20518;-55
2023/04/06 08:20:39;;;;;;;27.17;11.68;;;;;;;11.21;62.65;100617.41;8356198;28;20036;-55
2023/04/06 08:24:40;;;;;;;25.88;12.43;;;;;;;11.54;63.80;100632.34;8358832;28;20071;-55
2023/04/06 08:28:40;;;;;;;23.58;12.48;;;;;;;11.56;62.92;100633.91;8345114;28;20164;-55
2023/04/06 08:32:41;;;;;;;23.58;12.55;;;;;;;11.84;63.42;100630.31;8336997;28;20115;-55
2023/04/06 08:36:42;;;;;;;22.52;12.43;;;;;;;11.88;62.33;100629.03;8339712;28;20546;-55
2023/04/06 08:40:44;;;;;;;22.13;13.32;;;;;;;12.13;64.90;100629.41;8343280;28;20040;-56
2023/04/06 08:44:45;;;;;;;25.15;12.68;;;;;;;11.90;63.59;100624.31;8342465;28;20043;-55
2023/04/06 08:48:49;;;;;;;24.13;12.75;;;;;;;12.40;63.42;100615.84;8338009;28;20419;-56
2023/04/06 08:52:50;;;;;;;21.70;12.30;;;;;;;12.39;63.93;100619.59;8352522;28;20049;-56
2023/04/06 08:56:52;;;;;;;24.45;13.07;;;;;;;12.42;64.27;100613.88;8351545;28;20051;-58
2023/04/06 09:00:53;;;;;;;23.33;13.50;;;;;;;12.58;64.61;100614.06;8345739;28;20103;-57
2023/04/06 09:04:54;;;;;;;26.40;13.02;;;;;;;12.76;63.90;100607.69;8345199;28;20121;-57
2023/04/06 09:08:55;;;;;;;23.00;12.43;;;;;;;13.11;64.26;100613.16;8339601;28;20052;-57
2023/04/06 09:13:06;;;;;;;23.92;12.93;;;;;;;13.34;62.41;100616.28;8350925;28;20121;-57
2023/04/06 09:17:06;;;;;;;24.45;13.20;;;;;;;13.78;63.52;100612.56;8339598;28;20049;-51
2023/04/06 09:21:08;;;;;;;25.65;12.73;;;;;;;13.65;62.70;100613.00;8337920;28;20045;-54
2023/04/06 09:25:10;;;;;;;20.65;11.27;;;;;;;13.66;62.89;100616.53;8354832;28;20033;-54
2023/04/06 09:29:21;;;;;;;25.88;12.20;;;;;;;13.89;61.52;100615.03;8354601;28;20037;-54
2023/04/06 09:33:23;;;;;;;21.50;10.80;;;;;;;14.26;59.15;100614.78;8344298;28;20068;-55
2023/04/06 09:37:27;;;;;;;26.85;11.90;;;;;;;14.67;57.24;100606.63;8356051;28;20044;-54
2023/04/06 09:41:30;;;;;;;24.53;12.07;;;;;;;15.12;52.80;100607.09;8354856;28;20504;-54
2023/04/06 09:45:31;;;;;;;28.08;11.52;;;;;;;15.33;54.51;100610.22;8355330;28;20503;-54
2023/04/06 09:49:33;;;;;;;22.55;10.85;;;;;;;15.44;52.40;100607.16;8351108;28;20472;-54
2023/04/06 09:53:38;;;;;;;28.65;11.45;;;;;;;15.59;51.92;100602.75;8355236;28;20060;-55
2023/04/06 09:57:57;;;;;;;22.83;10.75;;;;;;;15.76;50.85;100609.03;8355233;28;20033;-55
2023/04/06 10:01:59;;;;;;;21.75;11.30;;;;;;;16.01;51.09;100598.97;8337017;28;20052;-55
2023/04/06 10:06:05;;;;;;;25.65;11.38;;;;;;;16.24;49.44;100600.78;8334149;28;20045;-55
2023/04/06 10:10:06;;;;;;;22.58;10.07;;;;;;;16.08;50.00;100589.91;8336836;28;20041;-54
2023/04/06 10:14:07;;;;;;;22.52;10.90;;;;;;;15.85;51.03;100593.56;8321500;28;20133;-55
2023/04/06 10:18:09;;;;;;;24.58;11.30;;;;;;;15.79;50.91;100599.69;8321877;28;20543;-55
2023/04/06 10:22:15;;;;;;;28.35;11.48;;;;;;;16.10;50.39;100598.75;8335543;28;20046;-55
2023/04/06 10:26:20;;;;;;;24.48;12.02;;;;;;;15.87;50.16;100596.94;8350256;28;20557;-55
2023/04/06 10:30:21;;;;;;;26.63;12.15;;;;;;;15.73;51.81;100596.63;8352211;28;20064;-55
2023/04/06 10:34:21;;;;;;;24.10;12.43;;;;;;;15.63;49.90;100595.94;8352471;28;20048;-55
2023/04/06 10:38:53;;;;;;;24.85;11.75;;;;;;;15.76;49.67;100600.03;8354016;28;20816;-56
2023/04/06 10:42:55;;;;;;;26.98;13.52;;;;;;;15.85;50.34;100593.56;8248981;28;20280;-55
2023/04/06 10:46:57;;;;;;;27.10;12.30;;;;;;;15.57;50.35;100596.63;8299073;28;20041;-55
2023/04/06 10:50:58;;;;;;;25.83;12.15;;;;;;;15.81;50.96;100597.63;8352029;28;20119;-53
2023/04/06 10:54:58;;;;;;;43.85;21.33;;;;;;;16.29;51.27;100597.53;8354337;28;20091;-54
2023/04/06 10:58:58;;;;;;;27.02;13.02;;;;;;;16.22;49.72;100599.25;8353137;28;20153;-54
2023/04/06 11:03:00;;;;;;;22.20;11.15;;;;;;;16.59;49.27;100594.06;8347422;28;20140;-54
2023/04/06 11:07:01;;;;;;;28.00;12.40;;;;;;;16.92;48.50;100587.38;8337887;28;20040;-54
2023/04/06 11:11:15;;;;;;;23.52;11.60;;;;;;;16.75;48.53;100588.50;8350076;28;20049;-54
2023/04/06 11:15:15;;;;;;;19.90;10.50;;;;;;;16.64;47.17;100586.16;8320612;28;20037;-54
2023/04/06 11:19:16;;;;;;;23.35;10.63;;;;;;;17.19;49.40;100586.88;8320373;28;20060;-54
2023/04/06 11:23:25;;;;;;;26.25;12.18;;;;;;;17.72;49.42;100589.56;8343139;28;20415;-54
2023/04/06 11:27:30;;;;;;;21.13;10.95;;;;;;;17.76;48.23;100590.88;8342403;28;20037;-54
2023/04/06 11:31:30;;;;;;;23.00;11.48;;;;;;;16.97;49.77;100587.69;8352450;28;20040;-57
2023/04/06 11:35:32;;;;;;;21.52;10.13;;;;;;;17.21;49.39;100580.22;8352979;28;20571;-57
2023/04/06 11:39:39;;;;;;;18.90;9.02;;;;;;;18.04;48.79;100577.44;8352792;28;20036;-57
2023/04/06 11:43:47;;;;;;;22.88;9.93;;;;;;;17.46;49.10;100576.28;8327090;28;20053;-58
2023/04/06 11:48:04;;;;;;;19.92;9.45;;;;;;;16.78;51.27;100569.03;8326270;28;20049;-58
2023/04/06 11:52:15;;;;;;;20.42;9.80;;;;;;;16.14;53.25;100580.19;8329798;28;20033;-54
2023/04/06 11:56:31;;;;;;;15.50;7.90;;;;;;;15.93;53.05;100579.88;8349780;28;20059;-54
2023/04/06 12:00:34;;;;;;;11.98;7.63;;;;;;;15.66;51.70;100579.25;8343365;28;20040;-54
2023/04/06 12:04:35;;;;;;;12.98;8.18;;;;;;;15.62;52.28;100583.31;8348075;28;20045;-54
2023/04/06 12:08:35;;;;;;;9.52;6.32;;;;;;;15.64;52.49;100578.56;8344181;28;20091;-54
2023/04/06 12:12:36;;;;;;;9.35;5.38;;;;;;;15.82;50.34;100583.00;8344643;28;20045;-53
2023/04/06 12:16:36;;;;;;;8.95;5.57;;;;;;;15.85;50.57;100574.47;8350304;28;20040;-54
2023/04/06 12:20:36;;;;;;;11.07;6.35;;;;;;;15.81;51.43;100582.13;8333855;28;20264;-53
2023/04/06 12:24:37;;;;;;;13.18;7.65;;;;;;;15.81;52.85;100584.00;8332559;28;20037;-54
2023/04/06 12:28:37;;;;;;;15.95;7.78;;;;;;;15.78;54.36;100587.91;8325738;28;20041;-54
2023/04/06 12:32:38;;;;;;;14.77;8.40;;;;;;;15.71;54.32;100595.94;8350872;28;20044;-54
2023/04/06 12:36:38;;;;;;;12.60;7.32;;;;;;;15.66;55.25;100584.72;8350156;28;20033;-54
2023/04/06 12:40:39;;;;;;;14.77;7.40;;;;;;;15.44;53.55;100590.00;8351200;28;20037;-54
2023/04/06 12:44:42;;;;;;;12.07;7.35;;;;;;;15.50;54.90;100595.59;8320571;28;20038;-54
2023/04/06 12:48:42;;;;;;;13.45;7.05;;;;;;;15.47;54.05;100584.19;8325580;28;20041;-54
2023/04/06 12:52:43;;;;;;;18.20;8.63;;;;;;;15.34;55.83;100597.44;8356877;28;20108;-54
2023/04/06 12:56:43;;;;;;;14.07;7.72;;;;;;;15.41;57.78;100599.31;8353729;28;20136;-54
2023/04/06 13:00:44;;;;;;;13.10;8.25;;;;;;;15.47;57.24;100595.94;8355421;28;20033;-54
2023/04/06 13:04:44;;;;;;;11.10;7.10;;;;;;;15.47;55.65;100586.91;8356009;28;20064;-54
2023/04/06 13:08:47;;;;;;;9.93;5.60;;;;;;;15.17;56.68;100591.13;8357135;28;20078;-54
2023/04/06 13:12:47;;;;;;;11.38;6.93;;;;;;;14.80;57.64;100584.41;8345691;28;20167;-55
2023/04/06 13:16:48;;;;;;;11.50;6.65;;;;;;;14.86;57.32;100589.19;8350298;28;20049;-58
2023/04/06 13:20:48;;;;;;;12.05;6.55;;;;;;;14.52;59.58;100591.94;8343520;28;20496;-58
2023/04/06 13:24:49;;;;;;;14.80;7.50;;;;;;;14.33;61.48;100586.75;8340044;28;20099;-58
2023/04/06 13:28:50;;;;;;;15.23;7.95;;;;;;;14.14;62.89;100592.41;8345087;28;20041;-60
2023/04/06 13:32:50;;;;;;;13.07;7.97;;;;;;;14.02;61.83;100591.00;8348163;28;20038;-54
2023/04/06 13:36:51;;;;;;;16.23;8.65;;;;;;;13.87;62.40;100589.88;8329060;28;20037;-54
2023/04/06 13:40:52;;;;;;;14.45;8.00;;;;;;;13.68;64.52;100595.50;8356823;28;20041;-53
2023/04/06 13:44:53;;;;;;;14.23;8.02;;;;;;;13.61;66.79;100586.31;8387413;28;20041;-55
2023/04/06 13:48:53;;;;;;;16.95;7.72;;;;;;;13.44;68.07;100584.44;8356472;28;20041;-55
2023/04/06 13:52:55;;;;;;;14.18;7.55;;;;;;;13.37;66.91;100580.66;8355239;28;20056;-54
2023/04/06 13:56:56;;;;;;;13.43;7.53;;;;;;;12.81;69.65;100580.09;8355787;28;20057;-55
2023/04/06 14:01:06;;;;;;;10.82;6.97;;;;;;;12.22;73.04;100585.13;8347808;28;20403;-55
2023/04/06 14:05:07;;;;;;;12.05;7.47;;;;;;;12.14;73.65;100588.56;8346075;28;20518;-55
2023/04/06 14:09:08;;;;;;;12.25;7.40;;;;;;;12.01;75.42;100579.09;8355258;28;20495;-55
2023/04/06 14:13:08;;;;;;;14.40;8.02;;;;;;;11.97;75.14;100580.38;8352813;28;20506;-56
2023/04/06 14:17:09;;;;;;;12.05;7.70;;;;;;;11.86;78.78;100589.53;8355057;28;20628;-55
2023/04/06 14:21:09;;;;;;;18.63;8.48;;;;;;;11.65;80.02;100588.91;8353925;28;20043;-55
2023/04/06 14:25:12;;;;;;;14.43;8.27;;;;;;;11.37;81.99;100573.50;8341068;28;20495;-56
2023/04/06 14:29:12;;;;;;;14.15;8.13;;;;;;;11.27;83.33;100576.22;8353719;28;20040;-53
2023/04/06 14:33:15;;;;;;;15.82;8.77;;;;;;;11.18;84.91;100560.84;8351915;28;20063;-53
2023/04/06 14:37:17;;;;;;;16.10;9.02;;;;;;;11.09;86.95;100571.66;8352753;28;20041;-56
2023/04/06 14:41:19;;;;;;;17.50;9.60;;;;;;;11.01;87.53;100552.59;8346946;28;20061;-55
2023/04/06 14:45:21;;;;;;;14.63;8.38;;;;;;;11.03;86.33;100550.59;8338080;28;20040;-53
2023/04/06 14:49:26;;;;;;;21.90;9.07;;;;;;;11.07;87.43;100562.88;8354423;28;20043;-53
2023/04/06 14:53:27;;;;;;;15.75;9.98;;;;;;;11.01;88.70;100553.44;8341857;28;20040;-53
2023/04/06 14:57:27;;;;;;;18.80;10.93;;;;;;;11.07;89.04;100558.28;8334007;28;20043;-55
2023/04/06 15:01:28;;;;;;;18.40;10.30;;;;;;;11.14;88.90;100554.03;8337870;28;20222;-54
2023/04/06 15:05:28;;;;;;;21.08;11.65;;;;;;;11.11;90.76;100558.88;8346685;28;20037;-53
2023/04/06 15:09:29;;;;;;;20.38;11.63;;;;;;;10.94;90.69;100554.16;8349871;28;20071;-52
2023/04/06 15:13:29;;;;;;;17.50;11.75;;;;;;;10.89;91.35;100551.88;8359364;28;20418;-53
2023/04/06 15:17:30;;;;;;;24.92;11.88;;;;;;;10.93;92.84;100545.22;8349133;28;20044;-54
2023/04/06 15:21:30;;;;;;;21.23;11.95;;;;;;;10.79;94.01;100548.31;8350541;28;20051;-54
2023/04/06 15:25:31;;;;;;;19.75;12.10;;;;;;;10.66;94.29;100550.44;8341894;28;20443;-53
2023/04/06 15:29:31;;;;;;;24.15;12.60;;;;;;;10.47;95.73;100547.72;8335319;28;20033;-53
2023/04/06 15:33:32;;;;;;;23.48;11.60;;;;;;;10.56;97.30;100540.59;8327337;28;20041;-53
2023/04/06 15:37:32;;;;;;;23.73;12.75;;;;;;;10.52;99.15;100533.78;8368996;28;20059;-53
2023/04/06 15:41:33;;;;;;;22.45;11.88;;;;;;;10.49;100.00;100544.88;8335688;28;20249;-54
2023/04/06 15:45:33;;;;;;;22.13;12.32;;;;;;;10.38;99.67;100537.75;8328317;28;20037;-55
2023/04/06 15:49:35;;;;;;;19.30;10.43;;;;;;;10.37;99.92;100525.19;8317546;28;20037;-54
2023/04/06 15:53:35;;;;;;;14.00;8.77;;;;;;;10.31;98.44;100530.31;8343767;28;20418;-54
2023/04/06 15:57:36;;;;;;;12.73;9.07;;;;;;;10.29;99.25;100526.91;8337348;28;20337;-53
2023/04/06 16:01:36;;;;;;;16.48;10.18;;;;;;;10.29;99.16;100537.69;8336760;28;20124;-54
2023/04/06 16:05:37;;;;;;;17.73;10.98;;;;;;;10.28;100.00;100534.13;8351787;28;20120;-53
2023/04/06 16:09:37;;;;;;;24.10;12.85;;;;;;;10.20;100.00;100533.13;8349542;28;20073;-54
2023/04/06 16:13:38;;;;;;;25.40;13.45;;;;;;;10.11;100.00;100532.13;8350517;28;20484;-54
2023/04/06 16:17:39;;;;;;;23.27;13.23;;;;;;;10.09;100.00;100520.56;8350750;28;20097;-54
2023/04/06 16:21:39;;;;;;;24.35;12.73;;;;;;;10.14;100.00;100529.13;8356220;28;20420;-54
2023/04/06 16:25:41;;;;;;;25.08;13.80;;;;;;;10.11;100.00;100529.41;8356749;28;20090;-54
2023/04/06 16:29:41;;;;;;;29.58;12.63;;;;;;;10.13;100.00;100522.03;8357694;28;20056;-54
2023/04/06 16:33:42;;;;;;;21.42;13.73;;;;;;;10.06;100.00;100518.13;8352647;28;20170;-54
2023/04/06 16:37:42;;;;;;;23.17;13.13;;;;;;;10.11;100.00;100524.00;8357176;28;20495;-54
2023/04/06 16:41:42;;;;;;;21.33;12.25;;;;;;;10.09;100.00;100520.56;8354004;28;20056;-54
2023/04/06 16:45:49;;;;;;;20.23;12.65;;;;;;;10.08;100.00;100518.88;8357257;28;20480;-54
2023/04/06 16:49:51;;;;;;;20.75;12.00;;;;;;;10.09;100.00;100523.28;8355910;28;20411;-56
2023/04/06 16:53:52;;;;;;;22.63;12.13;;;;;;;10.06;100.00;100526.22;8355739;28;20237;-54
2023/04/06 16:57:54;;;;;;;25.55;12.30;;;;;;;10.09;100.00;100520.56;8356050;28;20040;-55
2023/04/06 17:01:55;;;;;;;17.75;10.90;;;;;;;10.14;100.00;100514.75;8350354;28;20408;-56
2023/04/06 17:05:56;;;;;;;21.02;9.80;;;;;;;10.14;100.00;100523.72;8328820;28;20072;-56
2023/04/06 17:09:58;;;;;;;12.70;8.50;;;;;;;10.17;100.00;100518.06;8336631;28;20068;-55
2023/04/06 17:13:59;;;;;;;10.88;6.15;;;;;;;10.08;100.00;100508.06;8328388;28;20420;-55
2023/04/06 17:18:00;;;;;;;10.07;6.45;;;;;;;9.94;100.00;100513.81;8337468;28;20147;-56
2023/04/06 17:22:00;;;;;;;15.57;7.80;;;;;;;10.03;100.00;100515.69;8331029;28;20049;-55
2023/04/06 17:26:03;;;;;;;17.02;10.00;;;;;;;9.93;100.00;100515.69;8335763;28;20048;-55
2023/04/06 17:30:05;;;;;;;11.77;8.30;;;;;;;9.96;100.00;100526.22;8339145;28;20508;-55
2023/04/06 17:34:05;;;;;;;8.73;5.40;;;;;;;9.97;100.00;100513.53;8343768;28;20391;-55
2023/04/06 17:38:07;;;;;;;9.90;5.38;;;;;;;9.98;100.00;100515.28;8321449;28;20093;-55
2023/04/06 17:42:07;;;;;;;6.32;5.00;;;;;;;9.90;100.00;100521.34;8339047;28;20511;-55
2023/04/06 17:46:08;;;;;;;8.57;5.38;;;;;;;9.86;100.00;100519.88;8344981;28;20537;-55
2023/04/06 17:50:09;;;;;;;6.50;4.85;;;;;;;9.82;100.00;100513.06;8352838;28;20029;-55
2023/04/06 17:54:09;;;;;;;6.68;5.03;;;;;;;9.81;100.00;100510.50;8355108;28;20048;-56
2023/04/06 17:58:10;;;;;;;8.60;6.07;;;;;;;9.77;100.00;100514.47;8353830;28;20531;-55
2023/04/06 18:02:11;;;;;;;7.60;6.07;;;;;;;9.74;100.00;100509.34;8351372;28;20052;-55
2023/04/06 18:06:14;;;;;;;8.80;5.20;;;;;;;9.71;100.00;100512.31;8353703;28;20546;-55
2023/04/06 18:10:16;;;;;;;6.20;5.15;;;;;;;9.61;100.00;100511.41;8354315;28;20044;-55
2023/04/06 18:14:16;;;;;;;6.63;5.30;;;;;;;9.59;100.00;100510.69;8322621;28;20082;-56
2023/04/06 18:18:17;;;;;;;6.88;4.57;;;;;;;9.45;100.00;100513.72;8323681;28;20433;-56
2023/04/06 18:22:18;;;;;;;8.35;4.90;;;;;;;9.46;100.00;100510.06;8326507;28;20053;-55
2023/04/06 18:26:20;;;;;;;6.68;4.63;;;;;;;9.34;100.00;100494.94;8331011;28;20095;-56
2023/04/06 18:30:20;;;;;;;7.18;5.40;;;;;;;9.32;100.00;100503.16;8330426;28;20401;-55